Time;durP1;ratioP1;P1;durP2;ratioP2;P2;SDS_P1;SDS_P2;PMS_P1;PMS_P2;Temp;Humidity;BMP_temperature;BMP_pressure;BME280_temperature;BME280_humidity;BME280_pressure;Samples;Min_cycle;Max_cycle;Signal;HPM_P1;HPM_P2
2023/02/12 00:00:32;;;;;;;13.60;7.63;;;7.80;99.90;;;;;;5058425;28;20787;-69
2023/02/12 00:02:59;;;;;;;25.07;8.77;;;7.70;99.90;;;;;;5058413;28;20550;-69
2023/02/12 00:05:26;;;;;;;15.20;7.30;;;7.70;99.90;;;;;;5059856;28;20550;-70
2023/02/12 00:07:55;;;;;;;17.70;7.87;;;7.70;99.90;;;;;;5058333;28;20538;-70
2023/02/12 00:10:21;;;;;;;16.47;8.50;;;7.70;99.90;;;;;;5058791;28;20855;-70
2023/02/12 00:12:49;;;;;;;19.77;8.67;;;7.60;99.90;;;;;;5059270;28;20455;-70
2023/02/12 00:15:16;;;;;;;17.70;8.27;;;7.60;99.90;;;;;;5059105;28;20479;-70
2023/02/12 00:17:42;;;;;;;14.00;7.60;;;7.60;99.90;;;;;;5059338;28;20490;-70
2023/02/12 00:20:10;;;;;;;23.27;7.90;;;7.60;99.90;;;;;;5059510;28;20469;-70
2023/02/12 00:22:37;;;;;;;18.40;8.70;;;7.60;99.90;;;;;;5058967;28;20479;-69
2023/02/12 00:25:06;;;;;;;19.90;7.63;;;7.60;99.90;;;;;;5059514;28;20458;-68
2023/02/12 00:27:33;;;;;;;19.30;7.43;;;7.60;99.90;;;;;;5059191;28;20465;-70
2023/02/12 00:30:00;;;;;;;15.90;8.60;;;7.60;99.90;;;;;;5062509;28;20903;-70
2023/02/12 00:32:27;;;;;;;15.67;6.90;;;7.70;99.90;;;;;;5062446;28;20850;-70
2023/02/12 00:34:54;;;;;;;16.27;7.63;;;7.70;99.90;;;;;;5062074;28;20455;-71
2023/02/12 00:37:21;;;;;;;16.90;6.57;;;7.70;99.90;;;;;;5063607;28;20813;-69
2023/02/12 00:39:48;;;;;;;14.17;6.93;;;7.70;99.90;;;;;;5062468;28;20478;-70
2023/02/12 00:42:16;;;;;;;11.53;6.80;;;7.70;99.90;;;;;;5062401;28;20502;-70
2023/02/12 00:44:43;;;;;;;23.50;6.53;;;7.70;99.90;;;;;;5061668;28;20488;-70
2023/02/12 00:47:10;;;;;;;17.03;6.50;;;7.70;99.90;;;;;;5062602;28;20557;-71
2023/02/12 00:49:37;;;;;;;15.23;6.93;;;7.70;99.90;;;;;;5063141;28;20459;-70
2023/02/12 00:52:05;;;;;;;17.53;7.47;;;7.80;99.90;;;;;;5062858;28;20501;-70
2023/02/12 00:54:32;;;;;;;12.17;6.00;;;7.70;99.90;;;;;;5062822;28;20518;-70
2023/02/12 00:56:59;;;;;;;14.90;6.53;;;7.70;99.90;;;;;;5062582;28;20538;-70
2023/02/12 00:59:28;;;;;;;12.57;6.20;;;7.70;99.90;;;;;;5061542;28;20963;-70
2023/02/12 01:01:55;;;;;;;12.03;6.37;;;7.80;99.90;;;;;;5062168;28;20444;-72
2023/02/12 01:04:23;;;;;;;18.57;7.10;;;7.80;99.90;;;;;;5062265;28;20475;-69
2023/02/12 01:06:50;;;;;;;19.30;7.23;;;7.80;99.90;;;;;;5062240;28;20542;-70
2023/02/12 01:09:16;;;;;;;15.90;6.10;;;7.80;99.90;;;;;;5062646;28;20520;-70
2023/02/12 01:11:43;;;;;;;12.50;7.07;;;7.70;99.90;;;;;;5061184;28;20455;-70
2023/02/12 01:14:10;;;;;;;17.50;6.27;;;7.80;99.90;;;;;;5062063;28;20518;-70
2023/02/12 01:16:39;;;;;;;20.07;6.50;;;7.80;99.90;;;;;;5062283;28;20503;-70
2023/02/12 01:19:06;;;;;;;12.27;6.00;;;7.80;99.90;;;;;;5062193;28;20926;-69
2023/02/12 01:21:34;;;;;;;14.00;6.53;;;7.80;99.90;;;;;;5062450;28;20487;-70
2023/02/12 01:24:02;;;;;;;22.87;6.77;;;7.70;99.90;;;;;;5061723;28;20562;-70
2023/02/12 01:26:31;;;;;;;21.83;6.80;;;7.70;99.90;;;;;;5061572;28;20535;-69
2023/02/12 01:29:01;;;;;;;13.23;6.00;;;7.70;99.90;;;;;;5060942;28;20469;-70
2023/02/12 01:31:30;;;;;;;15.50;6.13;;;7.70;99.90;;;;;;5061077;28;20463;-69
2023/02/12 01:34:00;;;;;;;13.60;6.00;;;7.70;99.90;;;;;;5062224;28;20772;-68
2023/02/12 01:36:29;;;;;;;12.27;5.80;;;7.70;99.90;;;;;;5062158;28;20509;-69
2023/02/12 01:38:56;;;;;;;15.70;6.03;;;7.70;99.90;;;;;;5060501;28;20549;-69
2023/02/12 01:41:25;;;;;;;16.60;5.73;;;7.70;99.90;;;;;;5060711;28;20911;-70
2023/02/12 01:44:08;;;;;;;14.47;6.30;;;7.70;99.90;;;;;;5059816;28;20586;-69
2023/02/12 01:46:35;;;;;;;18.97;7.73;;;7.70;99.90;;;;;;5059512;28;20451;-70
2023/02/12 01:49:06;;;;;;;18.27;5.57;;;7.70;99.90;;;;;;5059037;28;20454;-70
2023/02/12 01:51:34;;;;;;;9.23;5.23;;;7.70;99.90;;;;;;5059283;28;20534;-70
2023/02/12 01:54:05;;;;;;;21.97;6.33;;;7.70;99.90;;;;;;5059209;28;20494;-70
2023/02/12 01:56:33;;;;;;;14.00;5.70;;;7.70;99.90;;;;;;5059425;28;20755;-70
2023/02/12 01:59:00;;;;;;;15.60;6.20;;;7.70;99.90;;;;;;5060187;28;20461;-72
2023/02/12 02:01:29;;;;;;;14.30;5.30;;;7.70;99.90;;;;;;5060084;28;20526;-70
2023/02/12 02:04:00;;;;;;;13.43;5.20;;;7.70;99.90;;;;;;5059164;28;20483;-70
2023/02/12 02:06:33;;;;;;;27.10;6.63;;;7.70;99.90;;;;;;5060016;28;20517;-70
2023/02/12 02:09:02;;;;;;;15.63;5.83;;;7.60;99.90;;;;;;5059344;28;20539;-70
2023/02/12 02:17:21;;;;;;;14.17;4.93;;;7.60;99.90;;;;;;5059414;28;20423;-68
2023/02/12 02:20:10;;;;;;;20.10;6.60;;;7.60;99.90;;;;;;5055258;28;20526;-70
2023/02/12 02:22:43;;;;;;;13.60;5.80;;;7.50;99.90;;;;;;5028566;28;20460;-70
2023/02/12 02:25:33;;;;;;;15.50;5.40;;;7.50;99.90;;;;;;5061222;28;20503;-69
2023/02/12 02:28:25;;;;;;;24.77;6.10;;;7.50;99.90;;;;;;5061893;28;20501;-70
2023/02/12 02:30:57;;;;;;;20.77;5.07;;;7.50;99.90;;;;;;5061021;28;20500;-71
2023/02/12 02:33:33;;;;;;;13.90;5.57;;;7.60;99.90;;;;;;5058464;28;20459;-70
2023/02/12 02:36:14;;;;;;;18.07;6.77;;;7.60;99.90;;;;;;5059067;28;20435;-71
2023/02/12 02:38:46;;;;;;;21.03;6.33;;;7.60;99.90;;;;;;5057568;28;20504;-70
2023/02/12 02:41:21;;;;;;;19.63;5.30;;;7.60;99.90;;;;;;5057251;28;20810;-70
2023/02/12 02:43:50;;;;;;;15.77;5.23;;;7.60;99.90;;;;;;5056945;28;20819;-70
2023/02/12 02:46:26;;;;;;;15.83;5.27;;;7.60;99.90;;;;;;5057843;28;20458;-71
2023/02/12 02:48:56;;;;;;;12.63;5.47;;;7.60;99.90;;;;;;5058041;28;20581;-70
2023/02/12 02:51:27;;;;;;;13.97;5.13;;;7.60;99.90;;;;;;5057541;28;20892;-69
2023/02/12 02:54:02;;;;;;;12.70;5.53;;;7.60;99.90;;;;;;5057326;28;20428;-71
2023/02/12 02:56:32;;;;;;;19.23;5.67;;;7.60;99.90;;;;;;5057823;28;20445;-69
2023/02/12 02:59:03;;;;;;;13.00;4.60;;;7.70;99.90;;;;;;5057914;28;20656;-70
2023/02/12 03:01:36;;;;;;;16.53;5.03;;;7.70;99.90;;;;;;5057063;28;20453;-71
2023/02/12 03:04:07;;;;;;;17.60;5.80;;;7.70;99.90;;;;;;5057414;28;20816;-70
2023/02/12 03:06:41;;;;;;;20.73;6.47;;;7.70;99.90;;;;;;5057250;28;20777;-70
2023/02/12 03:09:14;;;;;;;23.97;6.57;;;7.70;99.90;;;;;;5057409;28;20455;-70
2023/02/12 03:11:42;;;;;;;14.10;4.87;;;7.80;99.90;;;;;;5057758;28;20439;-69
2023/02/12 03:14:15;;;;;;;14.63;4.60;;;7.80;99.90;;;;;;5058009;28;20554;-71
2023/02/12 03:16:49;;;;;;;20.90;6.43;;;7.80;99.90;;;;;;5057658;28;20507;-70
2023/02/12 03:19:19;;;;;;;16.87;5.67;;;7.80;99.90;;;;;;5056969;28;20451;-70
2023/02/12 03:21:50;;;;;;;17.57;6.20;;;7.80;99.90;;;;;;5057748;28;20461;-70
2023/02/12 03:24:23;;;;;;;16.10;5.37;;;7.80;99.90;;;;;;5057322;28;20475;-70
2023/02/12 03:26:54;;;;;;;17.03;5.83;;;7.80;99.90;;;;;;5056730;28;20491;-70
2023/02/12 03:29:21;;;;;;;19.70;5.80;;;7.80;99.90;;;;;;5057558;28;20444;-70
2023/02/12 03:32:03;;;;;;;21.47;6.23;;;7.80;99.90;;;;;;5057991;28;20543;-71
2023/02/12 03:34:39;;;;;;;18.57;5.03;;;7.80;99.90;;;;;;5057395;28;20534;-69
2023/02/12 03:37:11;;;;;;;18.10;5.70;;;7.70;99.90;;;;;;5057548;28;20943;-70
2023/02/12 03:39:49;;;;;;;11.63;4.73;;;7.70;99.90;;;;;;5058535;28;20470;-70
2023/02/12 03:42:22;;;;;;;12.80;5.50;;;7.80;99.90;;;;;;5056949;28;20534;-70
2023/02/12 03:44:54;;;;;;;16.43;5.37;;;7.80;99.90;;;;;;5057410;28;20556;-69
2023/02/12 03:47:27;;;;;;;18.87;5.93;;;7.80;99.90;;;;;;5056895;28;20514;-70
2023/02/12 03:50:01;;;;;;;20.23;5.83;;;7.80;99.90;;;;;;5056898;28;20439;-70
2023/02/12 03:52:29;;;;;;;16.30;5.30;;;7.80;99.90;;;;;;5057849;28;20848;-70
2023/02/12 03:54:56;;;;;;;15.83;5.30;;;7.80;99.90;;;;;;5057064;28;20506;-69
2023/02/12 03:57:29;;;;;;;22.17;6.10;;;7.80;99.90;;;;;;5056490;28;20581;-71
2023/02/12 03:59:57;;;;;;;16.80;5.00;;;7.80;99.90;;;;;;5055922;28;20470;-70
2023/02/12 04:02:25;;;;;;;16.33;5.93;;;7.80;99.90;;;;;;5055535;28;20462;-70
2023/02/12 04:04:52;;;;;;;17.77;6.47;;;7.80;99.90;;;;;;5059889;28;20936;-70
2023/02/12 04:07:19;;;;;;;15.97;6.17;;;7.80;99.90;;;;;;5060329;28;20465;-70
2023/02/12 04:09:46;;;;;;;13.13;5.63;;;7.80;99.90;;;;;;5059649;28;20459;-70
2023/02/12 04:12:31;;;;;;;13.07;4.83;;;7.80;99.90;;;;;;5059566;28;20463;-70
2023/02/12 04:15:09;;;;;;;13.30;5.07;;;7.80;99.90;;;;;;5059924;28;20435;-71
2023/02/12 04:17:48;;;;;;;20.57;5.60;;;7.80;99.90;;;;;;5059478;28;20557;-69
2023/02/12 04:20:26;;;;;;;17.73;5.80;;;7.70;99.90;;;;;;5059379;28;20475;-69
2023/02/12 04:23:01;;;;;;;13.37;5.43;;;7.80;99.90;;;;;;5059582;28;20458;-69
2023/02/12 04:25:43;;;;;;;15.73;6.30;;;7.70;99.90;;;;;;5059586;28;20526;-70
2023/02/12 04:28:19;;;;;;;16.50;5.83;;;7.70;99.90;;;;;;5059271;28;20439;-69
2023/02/12 04:30:54;;;;;;;21.70;6.70;;;7.70;99.90;;;;;;5059103;28;20451;-70
2023/02/12 04:33:25;;;;;;;11.30;4.97;;;7.70;99.90;;;;;;5058837;28;20449;-70
2023/02/12 04:35:59;;;;;;;17.20;6.30;;;7.70;99.90;;;;;;5058731;28;20804;-70
2023/02/12 04:38:31;;;;;;;17.23;6.77;;;7.70;99.90;;;;;;5058664;28;20449;-70
2023/02/12 04:40:59;;;;;;;16.00;6.37;;;7.70;99.90;;;;;;5059170;28;20518;-70
2023/02/12 04:43:28;;;;;;;20.27;5.63;;;7.70;99.90;;;;;;5058779;28;20860;-70
2023/02/12 04:45:55;;;;;;;26.90;6.30;;;7.70;99.90;;;;;;5059161;28;20771;-69
2023/02/12 04:48:23;;;;;;;16.87;5.30;;;7.60;99.90;;;;;;5059773;28;20451;-69
2023/02/12 04:50:50;;;;;;;15.13;5.63;;;7.60;99.90;;;;;;5059716;28;20505;-69
2023/02/12 04:53:17;;;;;;;17.03;5.47;;;7.60;99.90;;;;;;5059061;28;20541;-69
2023/02/12 04:55:44;;;;;;;17.03;5.20;;;7.70;99.90;;;;;;5059585;28;20535;-70
2023/02/12 04:58:11;;;;;;;10.80;4.70;;;7.60;99.90;;;;;;5059573;28;20542;-70
2023/02/12 05:00:38;;;;;;;20.83;5.33;;;7.60;99.90;;;;;;5059168;28;20463;-70
2023/02/12 05:03:05;;;;;;;15.97;6.17;;;7.70;99.90;;;;;;5058794;28;20455;-70
2023/02/12 05:05:33;;;;;;;16.00;5.00;;;7.70;99.90;;;;;;5057799;28;20562;-70
2023/02/12 05:08:00;;;;;;;15.83;5.83;;;7.70;99.90;;;;;;5058043;28;20455;-70
2023/02/12 05:10:27;;;;;;;18.30;4.80;;;7.70;99.90;;;;;;5058420;28;20550;-70
2023/02/12 05:12:54;;;;;;;14.17;5.00;;;7.70;99.90;;;;;;5059097;28;20459;-70
2023/02/12 05:15:22;;;;;;;15.73;4.93;;;7.70;99.90;;;;;;5057813;28;20515;-70
2023/02/12 05:17:49;;;;;;;20.93;4.83;;;7.70;99.90;;;;;;5058050;28;20487;-69
2023/02/12 05:20:17;;;;;;;15.20;5.00;;;7.80;99.90;;;;;;5057783;28;20459;-70
2023/02/12 05:22:45;;;;;;;11.53;4.80;;;7.80;99.90;;;;;;5057850;28;20565;-70
2023/02/12 05:25:12;;;;;;;17.17;5.13;;;7.80;99.90;;;;;;5059017;28;20471;-70
2023/02/12 05:27:38;;;;;;;15.20;4.53;;;7.80;99.90;;;;;;5062500;28;20493;-70
2023/02/12 05:30:08;;;;;;;15.53;5.27;;;7.80;99.90;;;;;;5060996;28;20506;-70
2023/02/12 05:32:35;;;;;;;14.50;5.33;;;7.70;99.90;;;;;;5058317;28;20962;-70
2023/02/12 05:35:02;;;;;;;20.63;6.10;;;7.70;99.90;;;;;;5059779;28;20512;-70
2023/02/12 05:37:30;;;;;;;13.50;5.20;;;7.70;99.90;;;;;;5059526;28;20466;-70
2023/02/12 05:39:58;;;;;;;19.13;6.33;;;7.60;99.90;;;;;;5059669;28;20506;-70
2023/02/12 05:42:25;;;;;;;18.50;5.10;;;7.60;99.90;;;;;;5058993;28;20461;-71
2023/02/12 05:44:52;;;;;;;14.73;5.00;;;7.60;99.90;;;;;;5058928;28;20963;-71
2023/02/12 05:47:18;;;;;;;14.53;5.53;;;7.60;99.90;;;;;;5060099;28;20455;-71
2023/02/12 05:49:45;;;;;;;19.00;5.07;;;7.50;99.90;;;;;;5059870;28;20465;-71
2023/02/12 05:52:12;;;;;;;13.53;5.03;;;7.50;99.90;;;;;;5059741;28;20513;-70
2023/02/12 05:54:39;;;;;;;19.63;5.67;;;7.40;99.90;;;;;;5059939;28;20542;-71
2023/02/12 05:57:08;;;;;;;13.97;5.50;;;7.40;99.90;;;;;;5060169;28;20554;-70
2023/02/12 05:59:35;;;;;;;14.07;5.50;;;7.40;99.90;;;;;;5060569;28;20566;-71
2023/02/12 06:02:02;;;;;;;15.03;6.20;;;7.40;99.90;;;;;;5059821;28;20538;-71
2023/02/12 06:04:29;;;;;;;19.80;5.93;;;7.30;99.90;;;;;;5059578;28;20490;-70
2023/02/12 06:06:57;;;;;;;16.63;6.20;;;7.30;99.90;;;;;;5059647;28;20486;-70
2023/02/12 06:09:24;;;;;;;17.70;6.17;;;7.30;99.90;;;;;;5059417;28;20949;-71
2023/02/12 06:11:51;;;;;;;21.50;5.40;;;7.40;99.90;;;;;;5058231;28;20455;-71
2023/02/12 06:14:20;;;;;;;18.50;5.93;;;7.40;99.90;;;;;;5058603;28;20451;-72
2023/02/12 06:16:49;;;;;;;18.47;5.97;;;7.40;99.90;;;;;;5058764;28;20561;-70
2023/02/12 06:19:16;;;;;;;16.83;6.00;;;7.40;99.90;;;;;;5058583;28;20481;-70
2023/02/12 06:21:43;;;;;;;11.53;5.40;;;7.40;99.90;;;;;;5058919;28;20462;-69
2023/02/12 06:24:12;;;;;;;13.53;6.37;;;7.40;99.90;;;;;;5058104;28;20479;-71
2023/02/12 06:26:39;;;;;;;16.23;5.83;;;7.40;99.90;;;;;;5059198;28;20538;-70
2023/02/12 06:29:06;;;;;;;17.03;6.30;;;7.30;99.90;;;;;;5070824;28;20537;-70
2023/02/12 06:31:36;;;;;;;18.50;5.90;;;7.30;99.90;;;;;;5077679;28;20462;-71
2023/02/12 06:34:05;;;;;;;22.60;6.20;;;7.30;99.90;;;;;;5079010;28;20547;-71
2023/02/12 06:36:32;;;;;;;19.83;5.83;;;7.30;99.90;;;;;;5079102;28;20945;-71
2023/02/12 06:39:00;;;;;;;20.33;6.90;;;7.30;99.90;;;;;;5078636;28;20465;-69
2023/02/12 06:41:27;;;;;;;15.00;6.63;;;7.30;99.90;;;;;;5077425;28;20465;-70
2023/02/12 06:43:54;;;;;;;18.50;5.77;;;7.30;99.90;;;;;;5077943;28;20490;-71
2023/02/12 06:46:21;;;;;;;17.10;5.80;;;7.30;99.90;;;;;;5077661;28;20525;-70
2023/02/12 06:48:53;;;;;;;17.47;6.10;;;7.20;99.90;;;;;;5067501;28;20546;-70
2023/02/12 06:51:20;;;;;;;18.13;5.60;;;7.30;99.90;;;;;;5057715;28;20530;-69
2023/02/12 06:53:47;;;;;;;13.50;5.60;;;7.30;99.90;;;;;;5057661;28;20463;-70
2023/02/12 06:56:14;;;;;;;11.23;5.77;;;7.30;99.90;;;;;;5056861;28;20465;-70
2023/02/12 06:58:43;;;;;;;19.47;6.00;;;7.30;99.90;;;;;;5056889;28;20475;-70
2023/02/12 07:01:12;;;;;;;14.73;5.77;;;7.30;99.90;;;;;;5057388;28;20844;-70
2023/02/12 07:03:39;;;;;;;16.40;6.13;;;7.30;99.90;;;;;;5056393;28;20467;-70
2023/02/12 07:06:09;;;;;;;13.60;5.37;;;7.30;99.90;;;;;;5056128;28;20478;-70
2023/02/12 07:08:36;;;;;;;17.20;4.97;;;7.40;99.90;;;;;;5056020;28;20908;-69
2023/02/12 07:11:03;;;;;;;19.53;5.90;;;7.40;99.90;;;;;;5055706;28;20741;-70
2023/02/12 07:13:30;;;;;;;17.63;5.57;;;7.40;99.90;;;;;;5055674;28;20469;-70
2023/02/12 07:15:57;;;;;;;17.80;5.70;;;7.40;99.90;;;;;;5055775;28;20538;-70
2023/02/12 07:18:24;;;;;;;14.73;5.40;;;7.50;99.90;;;;;;5055997;28;20553;-71
2023/02/12 07:20:51;;;;;;;13.70;4.70;;;7.50;99.90;;;;;;5055564;28;20490;-68
2023/02/12 07:23:19;;;;;;;12.60;6.10;;;7.60;99.90;;;;;;5055192;28;20524;-70
2023/02/12 07:25:55;;;;;;;13.60;5.90;;;7.60;99.90;;;;;;5055619;28;20879;-70
2023/02/12 07:28:22;;;;;;;14.17;4.83;;;7.70;99.90;;;;;;5055490;28;20483;-70
2023/02/12 07:30:48;;;;;;;17.87;5.87;;;7.70;99.90;;;;;;5055762;28;20942;-70
2023/02/12 07:33:15;;;;;;;13.37;5.20;;;7.70;99.90;;;;;;5055813;28;20990;-69
2023/02/12 07:35:42;;;;;;;11.93;4.63;;;7.70;99.90;;;;;;5056111;28;20461;-71
2023/02/12 07:38:09;;;;;;;11.90;5.13;;;7.70;99.90;;;;;;5055751;28;20455;-70
2023/02/12 07:40:37;;;;;;;17.50;5.13;;;7.70;99.90;;;;;;5056016;28;20455;-71
2023/02/12 07:43:04;;;;;;;12.83;6.70;;;7.70;99.90;;;;;;5055823;28;20872;-70
2023/02/12 07:45:31;;;;;;;23.90;7.20;;;7.70;99.90;;;;;;5055640;28;20474;-71
2023/02/12 07:47:58;;;;;;;12.30;4.30;;;7.70;99.90;;;;;;5055509;28;20459;-71
2023/02/12 07:50:25;;;;;;;13.67;5.77;;;7.70;99.90;;;;;;5054916;28;20479;-70
2023/02/12 07:52:52;;;;;;;7.67;4.10;;;7.70;99.90;;;;;;5055510;28;20538;-71
2023/02/12 07:55:19;;;;;;;14.90;5.67;;;7.80;99.90;;;;;;5055723;28;20451;-70
2023/02/12 07:57:47;;;;;;;12.53;4.90;;;7.80;99.90;;;;;;5055432;28;20455;-70
2023/02/12 08:00:16;;;;;;;12.67;5.07;;;7.80;99.90;;;;;;5055998;28;20459;-70
2023/02/12 08:02:42;;;;;;;12.10;5.63;;;7.90;99.90;;;;;;5055445;28;20792;-70
2023/02/12 08:05:09;;;;;;;16.80;4.87;;;7.90;99.90;;;;;;5054297;28;20489;-70
2023/02/12 08:07:36;;;;;;;14.23;5.53;;;8.00;99.90;;;;;;5055063;28;20455;-70
2023/02/12 08:10:03;;;;;;;14.20;5.00;;;8.00;99.90;;;;;;5055191;28;20455;-70
2023/02/12 08:12:30;;;;;;;19.43;6.90;;;8.10;99.90;;;;;;5055617;28;20459;-71
2023/02/12 08:14:58;;;;;;;15.93;5.93;;;8.10;99.90;;;;;;5054641;28;20479;-69
2023/02/12 08:17:25;;;;;;;9.33;5.80;;;8.10;99.90;;;;;;5054382;28;20455;-70
2023/02/12 08:19:52;;;;;;;23.30;11.83;;;8.20;99.90;;;;;;5054797;28;20463;-70
2023/02/12 08:22:19;;;;;;;16.63;6.40;;;8.20;99.90;;;;;;5054357;28;20455;-70
2023/02/12 08:24:47;;;;;;;15.17;5.50;;;8.20;99.90;;;;;;5054647;28;20570;-71
2023/02/12 08:27:13;;;;;;;18.80;6.00;;;8.30;99.90;;;;;;5056142;28;20461;-71
2023/02/12 08:29:40;;;;;;;14.50;4.80;;;8.30;99.90;;;;;;5057474;28;20911;-71
2023/02/12 08:32:12;;;;;;;13.53;5.70;;;8.30;99.90;;;;;;5056902;28;20782;-70
2023/02/12 08:34:39;;;;;;;15.77;4.30;;;8.30;99.90;;;;;;5054457;28;20479;-70
2023/02/12 08:37:07;;;;;;;12.43;4.73;;;8.30;99.90;;;;;;5054954;28;20812;-70
2023/02/12 08:39:34;;;;;;;19.10;6.70;;;8.30;99.90;;;;;;5054184;28;20455;-70
2023/02/12 08:42:01;;;;;;;10.40;5.30;;;8.30;99.90;;;;;;5054303;28;20534;-71
2023/02/12 08:44:28;;;;;;;18.40;7.30;;;8.30;99.90;;;;;;5053794;28;20920;-70
2023/02/12 08:46:55;;;;;;;11.07;5.33;;;8.30;99.90;;;;;;5053911;28;20920;-71
2023/02/12 08:49:25;;;;;;;20.20;6.37;;;8.40;99.90;;;;;;5055411;28;20463;-71
2023/02/12 08:51:55;;;;;;;17.63;5.60;;;8.40;99.90;;;;;;5059196;28;20869;-70
2023/02/12 08:54:24;;;;;;;16.40;5.80;;;8.40;99.90;;;;;;5060073;28;20485;-70
2023/02/12 08:56:54;;;;;;;16.77;5.50;;;8.40;99.90;;;;;;5058958;28;20534;-69
2023/02/12 08:59:21;;;;;;;15.20;5.57;;;8.40;99.90;;;;;;5058048;28;20538;-70
2023/02/12 09:01:51;;;;;;;12.53;4.73;;;8.40;99.90;;;;;;5057716;28;20459;-70
2023/02/12 09:04:20;;;;;;;15.07;5.23;;;8.40;99.90;;;;;;5057118;28;20550;-70
2023/02/12 09:06:49;;;;;;;11.37;4.73;;;8.40;99.90;;;;;;5056661;28;20965;-69
2023/02/12 09:09:16;;;;;;;14.57;4.80;;;8.40;99.90;;;;;;5057306;28;20848;-70
2023/02/12 09:11:43;;;;;;;15.70;5.83;;;8.40;99.90;;;;;;5057050;28;20998;-70
2023/02/12 09:14:12;;;;;;;11.00;4.80;;;8.40;99.90;;;;;;5056993;28;20541;-70
2023/02/12 09:16:40;;;;;;;11.73;4.77;;;8.30;99.90;;;;;;5056995;28;20779;-69
2023/02/12 09:19:07;;;;;;;20.43;5.80;;;8.30;99.90;;;;;;5057126;28;20779;-70
2023/02/12 09:21:35;;;;;;;18.23;5.63;;;8.30;99.90;;;;;;5056966;28;20485;-70
2023/02/12 09:24:04;;;;;;;24.07;6.93;;;8.30;99.90;;;;;;5056847;28;20455;-69
2023/02/12 09:26:31;;;;;;;16.50;5.83;;;8.30;99.90;;;;;;5056308;28;20475;-70
2023/02/12 09:28:58;;;;;;;19.10;5.70;;;8.30;99.90;;;;;;5057099;28;20543;-69
2023/02/12 09:31:27;;;;;;;17.60;7.43;;;8.30;99.90;;;;;;5056788;28;20455;-69
2023/02/12 09:33:59;;;;;;;21.87;7.10;;;8.30;99.90;;;;;;5056748;28;20466;-71
2023/02/12 09:36:26;;;;;;;15.23;6.00;;;8.40;99.90;;;;;;5056746;28;20895;-71
2023/02/12 09:38:53;;;;;;;20.30;5.60;;;8.40;99.90;;;;;;5056742;28;20455;-70
2023/02/12 09:41:50;;;;;;;19.30;5.97;;;8.40;99.90;;;;;;5056635;28;20465;-72
2023/02/12 09:44:22;;;;;;;11.90;4.80;;;8.60;99.90;;;;;;5056400;28;20493;-70
2023/02/12 09:46:53;;;;;;;20.87;8.40;;;8.70;99.90;;;;;;5056310;28;20463;-70
2023/02/12 09:49:37;;;;;;;16.83;6.17;;;8.70;99.90;;;;;;5056870;28;20440;-71
2023/02/12 09:52:05;;;;;;;18.63;7.13;;;8.70;99.90;;;;;;5056641;28;20458;-70
2023/02/12 09:54:38;;;;;;;17.67;5.70;;;8.80;99.90;;;;;;5056150;28;20459;-70
2023/02/12 09:57:16;;;;;;;15.53;4.83;;;8.70;99.90;;;;;;5056187;28;20446;-70
2023/02/12 09:59:47;;;;;;;14.60;5.53;;;8.70;99.90;;;;;;5056507;28;20443;-70
2023/02/12 10:02:15;;;;;;;16.60;5.60;;;8.70;99.90;;;;;;5055721;28;20447;-72
2023/02/12 10:04:44;;;;;;;16.77;5.93;;;8.60;99.90;;;;;;5056006;28;20832;-71
2023/02/12 10:07:22;;;;;;;18.60;6.13;;;8.50;99.90;;;;;;5075471;28;20548;-71
2023/02/12 10:10:14;;;;;;;15.60;5.43;;;8.50;99.90;;;;;;5075988;28;20443;-70
2023/02/12 10:12:50;;;;;;;16.57;6.60;;;8.60;99.90;;;;;;5073944;28;20454;-70
2023/02/12 10:15:38;;;;;;;17.57;5.10;;;8.60;99.90;;;;;;5074443;28;20450;-71
2023/02/12 10:18:20;;;;;;;16.27;6.67;;;8.70;99.90;;;;;;5075769;28;20442;-69
2023/02/12 10:20:58;;;;;;;14.10;6.17;;;8.80;99.90;;;;;;5076034;28;20453;-69
2023/02/12 10:23:46;;;;;;;13.53;5.13;;;8.90;99.90;;;;;;5075799;28;20439;-69
2023/02/12 10:26:20;;;;;;;17.13;5.93;;;9.00;99.90;;;;;;5063344;28;20528;-70
2023/02/12 10:28:51;;;;;;;13.07;5.13;;;9.00;99.90;;;;;;5056015;28;20479;-70
2023/02/12 10:31:26;;;;;;;11.53;5.00;;;9.00;99.90;;;;;;5055621;28;20443;-70
2023/02/12 10:33:55;;;;;;;16.43;5.57;;;9.00;99.90;;;;;;5055383;28;20443;-71
2023/02/12 10:36:37;;;;;;;11.53;6.07;;;9.00;99.90;;;;;;5055761;28;20777;-71
2023/02/12 10:39:12;;;;;;;19.23;6.37;;;8.90;99.90;;;;;;5055904;28;20849;-70
2023/02/12 10:41:44;;;;;;;17.70;6.60;;;8.80;99.90;;;;;;5055854;28;20467;-69
2023/02/12 10:44:12;;;;;;;18.13;7.50;;;8.70;99.90;;;;;;5055388;28;20487;-70
2023/02/12 10:46:39;;;;;;;13.17;7.00;;;8.60;99.90;;;;;;5055536;28;20489;-71
2023/02/12 10:49:08;;;;;;;17.03;8.80;;;8.60;99.90;;;;;;5055160;28;20916;-70
2023/02/12 10:52:03;;;;;;;18.90;7.80;;;8.50;99.90;;;;;;5055245;28;20451;-70
2023/02/12 10:54:40;;;;;;;11.83;6.20;;;8.50;99.90;;;;;;5055322;28;20436;-70
2023/02/12 10:57:15;;;;;;;17.23;7.60;;;8.40;99.90;;;;;;5055403;28;20546;-70
2023/02/12 10:59:46;;;;;;;14.43;7.20;;;8.30;99.90;;;;;;5055182;28;20466;-68
2023/02/12 11:02:28;;;;;;;15.07;7.13;;;8.20;99.90;;;;;;5055365;28;20517;-71
2023/02/12 11:04:56;;;;;;;18.87;9.30;;;8.20;99.90;;;;;;5054852;28;20528;-70
2023/02/12 11:07:24;;;;;;;15.00;8.30;;;8.20;99.90;;;;;;5055126;28;20805;-71
2023/02/12 11:09:53;;;;;;;20.53;9.23;;;8.20;99.90;;;;;;5055011;28;20455;-70
2023/02/12 11:12:28;;;;;;;15.50;7.70;;;8.20;99.90;;;;;;5054894;28;20546;-69
2023/02/12 11:14:59;;;;;;;17.33;8.00;;;8.20;99.90;;;;;;5055867;28;20481;-70
2023/02/12 11:17:33;;;;;;;16.37;7.80;;;8.20;99.90;;;;;;5055409;28;20436;-71
2023/02/12 11:20:22;;;;;;;20.70;9.20;;;8.10;99.90;;;;;;5055107;28;20442;-70
2023/02/12 11:22:55;;;;;;;15.30;7.87;;;8.10;99.90;;;;;;5054511;28;20495;-70
2023/02/12 11:25:23;;;;;;;15.83;8.53;;;8.10;99.90;;;;;;5055147;28;20545;-71
2023/02/12 11:28:01;;;;;;;18.23;8.60;;;8.10;99.90;;;;;;5055214;28;20455;-71
2023/02/12 11:30:29;;;;;;;14.30;8.07;;;8.10;99.90;;;;;;5055151;28;20949;-71
2023/02/12 11:33:16;;;;;;;18.43;6.83;;;8.10;99.90;;;;;;5055084;28;20855;-69
2023/02/12 11:35:51;;;;;;;15.30;7.23;;;8.10;99.90;;;;;;5055190;28;20439;-70
2023/02/12 11:38:27;;;;;;;14.30;6.80;;;8.20;99.90;;;;;;5056002;28;20899;-71
2023/02/12 11:40:58;;;;;;;12.83;6.77;;;8.40;99.90;;;;;;5056762;28;20473;-71
2023/02/12 11:43:28;;;;;;;15.17;7.27;;;8.60;99.90;;;;;;5056036;28;20552;-70
2023/02/12 11:45:57;;;;;;;15.40;5.90;;;8.70;99.90;;;;;;5054974;28;20796;-71
2023/02/12 11:48:27;;;;;;;10.13;6.40;;;8.80;99.90;;;;;;5055909;28;20463;-71
2023/02/12 11:50:57;;;;;;;10.00;5.60;;;8.80;99.90;;;;;;5055527;28;20490;-72
2023/02/12 11:53:27;;;;;;;14.00;8.00;;;8.80;99.90;;;;;;5055287;28;20550;-72
2023/02/12 11:55:58;;;;;;;13.60;6.13;;;8.80;99.90;;;;;;5055881;28;20443;-71
2023/02/12 11:58:27;;;;;;;9.20;6.50;;;8.70;99.90;;;;;;5055990;28;20459;-71
2023/02/12 12:01:01;;;;;;;14.70;7.23;;;8.60;99.90;;;;;;5056132;28;20459;-72
2023/02/12 12:03:34;;;;;;;14.60;6.93;;;8.60;99.90;;;;;;5059919;28;20454;-71
2023/02/12 12:06:05;;;;;;;10.80;7.43;;;8.70;99.90;;;;;;5060762;28;20555;-71
2023/02/12 12:08:40;;;;;;;10.20;6.47;;;8.70;99.90;;;;;;5059042;28;20483;-72
2023/02/12 12:11:14;;;;;;;15.70;8.40;;;8.70;99.90;;;;;;5059496;28;20474;-71
2023/02/12 12:13:48;;;;;;;17.30;8.63;;;8.80;99.90;;;;;;5056455;28;20531;-72
2023/02/12 12:22:04;;;;;;;10.77;5.43;;;9.00;99.90;;;;;;5055709;28;20434;-72
2023/02/12 12:24:39;;;;;;;8.90;5.67;;;9.10;99.90;;;;;;5057156;28;20455;-71
2023/02/12 12:28:01;;;;;;;9.23;5.37;;;9.40;99.90;;;;;;5058374;28;20796;-70
2023/02/12 12:30:12;;;;;;;7.40;4.73;;;10.10;99.90;;;;;;5058604;28;20455;-71
2023/02/12 12:32:42;;;;;;;8.00;4.40;;;10.70;99.90;;;;;;5058338;28;20439;-70
2023/02/12 12:35:15;;;;;;;7.23;4.30;;;11.10;99.90;;;;;;5058417;28;20455;-69
2023/02/12 12:37:46;;;;;;;6.80;4.30;;;11.30;99.90;;;;;;5058959;28;20439;-70
2023/02/12 12:40:30;;;;;;;5.90;4.03;;;11.30;99.90;;;;;;5059331;28;20549;-70
2023/02/12 12:43:09;;;;;;;5.80;4.03;;;11.30;99.90;;;;;;5058300;28;20534;-71
2023/02/12 12:46:24;;;;;;;8.67;4.07;;;11.10;99.90;;;;;;5057904;28;20479;-70
2023/02/12 12:49:23;;;;;;;7.13;5.33;;;10.80;99.90;;;;;;4997161;28;20449;-70
2023/02/12 12:52:10;;;;;;;7.73;4.07;;;10.50;99.90;;;;;;4996818;28;20460;-71
2023/02/12 12:54:55;;;;;;;10.63;4.47;;;10.60;99.90;;;;;;5045789;28;20458;-70
2023/02/12 12:57:37;;;;;;;6.60;3.73;;;10.60;99.90;;;;;;5058584;28;20896;-71
2023/02/12 13:00:25;;;;;;;7.40;4.77;;;10.60;99.90;;;;;;5058712;28;20444;-71
2023/02/12 13:03:34;;;;;;;8.70;5.20;;;10.50;99.90;;;;;;5058740;28;20522;-71
2023/02/12 13:06:25;;;;;;;8.03;4.80;;;10.30;99.90;;;;;;5033254;28;20479;-74
2023/02/12 13:09:20;;;;;;;9.00;5.53;;;10.10;99.90;;;;;;5058792;28;20530;-70
2023/02/12 13:12:02;;;;;;;9.27;6.27;;;10.10;99.90;;;;;;5058883;28;20534;-73
2023/02/12 13:14:40;;;;;;;8.40;5.00;;;10.20;99.90;;;;;;5058132;28;20449;-70
2023/02/12 13:17:18;;;;;;;10.40;6.70;;;10.30;99.90;;;;;;5057904;28;20899;-71
2023/02/12 13:19:55;;;;;;;7.80;4.40;;;10.30;99.90;;;;;;5057824;28;20939;-71